KLWV/LWV METAR and TAF weather

Enter ICAO airport designator
Station Type Date Time Source
KLWV METAR 2020/07/06 23:53 UTC NOAA

KLWV 062353Z AUTO 19005KT 10SM CLR 31/23 A2995 RMK AO2 SLP137 T03110233 10328 20311 56004


Station Type Date Time Source
KLWV Decoded METAR 2020/07/06 23:53 UTC NOAA

LAWRENCEVILLE-VINCENNES INTERNATIONAL , IL, United States (KLWV) 38-46N 87-36W 131M
Jul 06, 2020 - 07:53 PM EDT / 2020.07.06 2353 UTC
Wind: from the S (190 degrees) at 6 MPH (5 KT):0
Visibility: 10 mile(s):0
Sky conditions: clear
Temperature: 88.0 F (31.1 C)
Heat index: 96.6 F (35.9 C):1
Dew Point: 73.9 F (23.3 C)
Relative Humidity: 63%
Pressure (altimeter): 29.95 in. Hg (1014 hPa)
Pressure tendency: 0.01 inches (0.4 hPa) lower than three hours ago
ob: KLWV 062353Z AUTO 19005KT 10SM CLR 31/23 A2995 RMK AO2 SLP137 T03110233 10328 20311 56004
cycle: 0

Station Type Date Time Source
KLWV TAF UTC NOAA

Error!

Example: see airport list